Time;durP1;ratioP1;P1;durP2;ratioP2;P2;SDS_P1;SDS_P2;PMS_P1;PMS_P2;Temp;Humidity;BMP_temperature;BMP_pressure;BME280_temperature;BME280_humidity;BME280_pressure;Samples;Min_cycle;Max_cycle;Signal;HPM_P1;HPM_P2
2023/08/05 00:00:36;;;;;;;;;;;;;;;21.84;45.48;96937.19;4236275;27;5662;-69
2023/08/05 00:02:39;;;;;;;;;;;;;;;21.88;45.52;96943.69;4236085;28;5103;-69
2023/08/05 00:04:42;;;;;;;;;;;;;;;21.90;45.45;96936.97;4236349;28;5847;-69
2023/08/05 00:06:44;;;;;;;;;;;;;;;21.82;45.42;96937.47;4229624;28;5602;-69
2023/08/05 00:08:48;;;;;;;;;;;;;;;21.85;45.46;96945.00;4236037;28;5650;-69
2023/08/05 00:10:51;;;;;;;;;;;;;;;21.85;45.83;96945.00;4236173;28;5657;-69
2023/08/05 00:12:54;;;;;;;;;;;;;;;21.83;45.61;96947.16;4235772;28;5647;-69
2023/08/05 00:14:57;;;;;;;;;;;;;;;21.74;46.01;96954.09;4235686;28;5752;-69
2023/08/05 00:17:00;;;;;;;;;;;;;;;21.73;46.10;96950.59;4235946;28;5629;-69
2023/08/05 00:19:03;;;;;;;;;;;;;;;21.76;46.06;96957.34;4236158;27;5729;-69
2023/08/05 00:21:06;;;;;;;;;;;;;;;21.75;46.11;96947.66;4235899;28;5643;-69
2023/08/05 00:23:08;;;;;;;;;;;;;;;21.81;46.36;96962.75;4235692;28;5897;-69
2023/08/05 00:25:13;;;;;;;;;;;;;;;21.84;46.03;96950.66;4236117;28;5654;-69
2023/08/05 00:27:16;;;;;;;;;;;;;;;21.84;46.13;96953.34;4235310;28;5666;-69
2023/08/05 00:29:18;;;;;;;;;;;;;;;21.84;46.17;96964.91;4235930;27;5635;-70
2023/08/05 00:31:21;;;;;;;;;;;;;;;21.82;46.00;96961.69;4235815;28;5654;-69
2023/08/05 00:33:24;;;;;;;;;;;;;;;21.83;46.10;96960.59;4235695;28;5605;-70
2023/08/05 00:35:27;;;;;;;;;;;;;;;21.89;46.44;96964.97;4235983;27;5768;-69
2023/08/05 00:37:30;;;;;;;;;;;;;;;21.93;46.00;96966.06;4235447;28;5614;-69
2023/08/05 00:39:33;;;;;;;;;;;;;;;21.96;46.28;96962.81;4232802;28;5758;-69
2023/08/05 00:41:36;;;;;;;;;;;;;;;21.98;46.17;96976.06;4226679;28;5678;-69
2023/08/05 00:43:39;;;;;;;;;;;;;;;21.97;46.32;96980.63;4234137;28;5718;-69
2023/08/05 00:45:42;;;;;;;;;;;;;;;21.96;46.51;96978.97;4235282;28;5728;-69
2023/08/05 00:47:45;;;;;;;;;;;;;;;21.97;46.24;96972.56;4235564;28;5662;-69
2023/08/05 00:49:50;;;;;;;;;;;;;;;22.00;46.30;96973.91;4235482;28;5642;-70
2023/08/05 00:51:54;;;;;;;;;;;;;;;21.97;46.64;96967.16;4235565;27;5733;-69
2023/08/05 00:53:58;;;;;;;;;;;;;;;21.96;46.55;96965.53;4235241;28;5662;-69
2023/08/05 00:56:01;;;;;;;;;;;;;;;21.94;46.12;96970.34;4235380;28;5659;-69
2023/08/05 00:58:05;;;;;;;;;;;;;;;21.89;46.46;96962.28;4234492;28;5712;-69
2023/08/05 01:00:08;;;;;;;;;;;;;;;21.89;46.63;96964.97;4235284;28;5849;-69
2023/08/05 01:02:11;;;;;;;;;;;;;;;21.91;46.37;96960.13;4235023;28;5745;-69
2023/08/05 01:04:14;;;;;;;;;;;;;;;21.93;46.46;96962.56;4233891;28;5711;-69
2023/08/05 01:06:19;;;;;;;;;;;;;;;21.93;46.77;96965.25;4235205;28;5650;-69
2023/08/05 01:08:23;;;;;;;;;;;;;;;21.91;46.97;96965.50;4234059;28;5666;-69
2023/08/05 01:10:26;;;;;;;;;;;;;;;21.87;47.00;96964.41;4234756;28;5541;-69
2023/08/05 01:12:28;;;;;;;;;;;;;;;21.88;46.70;96966.03;4234914;28;7691;-69
2023/08/05 01:14:33;;;;;;;;;;;;;;;21.82;47.25;96972.44;4228563;28;5650;-70
2023/08/05 01:16:35;;;;;;;;;;;;;;;21.78;47.10;96966.78;4234810;28;5655;-69
2023/08/05 01:18:40;;;;;;;;;;;;;;;21.77;47.32;96957.09;4235109;28;5869;-69
2023/08/05 01:20:47;;;;;;;;;;;;;;;21.79;47.22;96962.22;4235010;28;5645;-69
2023/08/05 01:22:54;;;;;;;;;;;;;;;21.83;47.35;96955.22;4226509;28;5744;-69
2023/08/05 01:25:04;;;;;;;;;;;;;;;21.87;47.38;96956.34;4234896;28;5649;-69
2023/08/05 01:27:10;;;;;;;;;;;;;;;21.88;47.38;96957.97;4234375;27;6406;-69
2023/08/05 01:29:13;;;;;;;;;;;;;;;21.89;47.62;96951.50;4235133;28;5655;-70
2023/08/05 01:31:16;;;;;;;;;;;;;;;21.84;47.35;96959.53;4233535;28;5638;-69
2023/08/05 01:33:20;;;;;;;;;;;;;;;21.82;47.72;96956.31;4234537;28;5730;-69
2023/08/05 01:35:24;;;;;;;;;;;;;;;21.79;47.68;96954.13;4234793;27;5635;-69
2023/08/05 01:37:26;;;;;;;;;;;;;;;21.76;47.76;96957.34;4234668;28;5642;-69
2023/08/05 01:39:29;;;;;;;;;;;;;;;21.75;47.43;96958.44;4234073;28;6324;-69
2023/08/05 01:41:32;;;;;;;;;;;;;;;21.75;47.66;96961.13;4234473;28;6327;-69
2023/08/05 01:43:36;;;;;;;;;;;;;;;21.73;47.50;96958.66;4234748;27;6435;-69
2023/08/05 01:45:39;;;;;;;;;;;;;;;21.73;47.55;96957.84;4234486;28;5767;-69
2023/08/05 01:47:42;;;;;;;;;;;;;;;21.70;47.88;96958.38;4229133;28;5663;-69
2023/08/05 01:49:45;;;;;;;;;;;;;;;21.76;48.12;96957.34;4234148;28;5702;-69
2023/08/05 01:51:47;;;;;;;;;;;;;;;21.78;47.94;96955.22;4234256;28;5654;-69
2023/08/05 01:53:50;;;;;;;;;;;;;;;21.76;47.96;96946.59;4234181;27;5716;-70
2023/08/05 01:55:53;;;;;;;;;;;;;;;21.73;47.95;96947.91;4234299;28;5651;-69
2023/08/05 01:57:55;;;;;;;;;;;;;;;21.74;47.87;96949.53;4225877;28;5663;-69
2023/08/05 02:00:00;;;;;;;;;;;;;;;21.74;48.16;96954.09;4234520;28;5636;-69
2023/08/05 02:02:03;;;;;;;;;;;;;;;21.69;47.99;96956.75;4234317;28;5764;-69
2023/08/05 02:04:06;;;;;;;;;;;;;;;21.65;48.48;96948.41;4234281;28;5662;-69
2023/08/05 02:06:09;;;;;;;;;;;;;;;21.66;48.40;96951.91;4228705;28;5840;-69
2023/08/05 02:08:12;;;;;;;;;;;;;;;21.64;48.70;96952.19;4234490;28;6352;-69
2023/08/05 02:10:15;;;;;;;;;;;;;;;21.70;48.38;96955.69;4234229;28;5654;-69
2023/08/05 02:12:18;;;;;;;;;;;;;;;21.72;48.25;96948.16;4233971;28;5659;-69
2023/08/05 02:14:19;;;;;;;;;;;;;;;21.71;48.15;96941.16;4234020;28;5642;-69
2023/08/05 02:16:24;;;;;;;;;;;;;;;21.69;48.19;96940.63;4228116;28;5853;-69
2023/08/05 02:18:27;;;;;;;;;;;;;;;21.65;48.38;96937.66;4230809;28;6295;-69
2023/08/05 02:20:30;;;;;;;;;;;;;;;21.63;48.50;96944.34;4233695;28;5663;-69
2023/08/05 02:22:33;;;;;;;;;;;;;;;21.63;48.83;96947.03;4228887;28;5653;-69
2023/08/05 02:24:36;;;;;;;;;;;;;;;21.59;48.71;96940.56;4233821;28;5760;-69
2023/08/05 02:26:39;;;;;;;;;;;;;;;21.59;48.82;96941.38;4233571;28;5711;-68
2023/08/05 02:28:42;;;;;;;;;;;;;;;21.58;48.64;96938.94;4234045;28;5927;-68
2023/08/05 02:30:44;;;;;;;;;;;;;;;21.60;48.71;96942.97;4234090;28;7816;-69
2023/08/05 02:32:49;;;;;;;;;;;;;;;21.60;48.68;96936.78;4234083;28;5749;-69
2023/08/05 02:34:51;;;;;;;;;;;;;;;21.64;48.89;96946.00;4233818;28;5638;-69
2023/08/05 02:36:54;;;;;;;;;;;;;;;21.64;48.87;96946.78;4234181;28;5745;-69
2023/08/05 02:38:57;;;;;;;;;;;;;;;21.68;48.83;96944.38;4231427;28;5772;-69
2023/08/05 02:41:00;;;;;;;;;;;;;;;21.63;49.06;96938.97;4234103;27;5650;-69
2023/08/05 02:43:03;;;;;;;;;;;;;;;21.59;48.78;96935.97;4233894;28;5621;-69
2023/08/05 02:45:07;;;;;;;;;;;;;;;21.57;49.19;96940.00;4233863;28;5064;-69
2023/08/05 02:47:10;;;;;;;;;;;;;;;21.56;48.99;96944.59;4234151;28;5671;-69
2023/08/05 02:49:14;;;;;;;;;;;;;;;21.54;49.15;96945.91;4234044;28;5647;-69
2023/08/05 02:51:16;;;;;;;;;;;;;;;21.54;49.46;96940.53;4233953;28;5725;-68
2023/08/05 02:53:20;;;;;;;;;;;;;;;21.53;49.21;96944.31;4233563;27;6344;-69
2023/08/05 02:55:22;;;;;;;;;;;;;;;21.55;49.46;96942.16;4232346;28;5655;-68
2023/08/05 02:57:25;;;;;;;;;;;;;;;21.59;49.07;96940.56;4230516;28;5672;-68
2023/08/05 02:59:29;;;;;;;;;;;;;;;21.65;49.44;96939.53;4234077;28;5646;-69
2023/08/05 03:01:32;;;;;;;;;;;;;;;21.70;49.52;96932.28;4233964;28;5651;-69
2023/08/05 03:03:35;;;;;;;;;;;;;;;21.74;49.52;96935.25;4233888;28;5650;-69
2023/08/05 03:05:39;;;;;;;;;;;;;;;21.74;49.67;96932.56;4233998;28;5802;-69
2023/08/05 03:07:41;;;;;;;;;;;;;;;21.77;49.47;96924.00;4233718;27;5642;-69
2023/08/05 03:09:44;;;;;;;;;;;;;;;21.79;49.50;96935.31;4233861;28;5637;-69
2023/08/05 03:11:47;;;;;;;;;;;;;;;21.79;49.63;96935.31;4233668;28;5654;-69
2023/08/05 03:13:51;;;;;;;;;;;;;;;21.79;49.56;96929.91;4227877;28;6499;-68
2023/08/05 03:15:54;;;;;;;;;;;;;;;21.79;49.46;96929.91;4233470;28;5657;-69
2023/08/05 03:17:57;;;;;;;;;;;;;;;21.79;49.44;96929.91;4234026;27;5781;-69
2023/08/05 03:20:03;;;;;;;;;;;;;;;21.79;49.63;96930.72;4233866;28;5331;-69
2023/08/05 03:22:08;;;;;;;;;;;;;;;21.78;49.88;96929.13;4233871;28;7671;-68
2023/08/05 03:24:09;;;;;;;;;;;;;;;21.79;49.69;96935.31;4233970;28;5445;-69
2023/08/05 03:26:13;;;;;;;;;;;;;;;21.80;49.59;96937.72;4233345;28;7802;-68
2023/08/05 03:28:15;;;;;;;;;;;;;;;21.80;49.55;96932.34;4233560;27;5616;-69
2023/08/05 03:30:19;;;;;;;;;;;;;;;21.80;49.82;96934.22;4227964;28;5777;-69
2023/08/05 03:32:22;;;;;;;;;;;;;;;21.79;50.16;96932.63;4236069;28;5679;-69
2023/08/05 03:34:25;;;;;;;;;;;;;;;21.79;49.84;96929.91;4236832;28;5651;-69
2023/08/05 03:36:28;;;;;;;;;;;;;;;21.77;49.82;96938.25;4236695;28;5753;-69
2023/08/05 03:38:33;;;;;;;;;;;;;;;21.77;50.16;96930.19;4236529;27;5736;-68
2023/08/05 03:40:35;;;;;;;;;;;;;;;21.77;49.94;96940.13;4236710;27;5634;-69
2023/08/05 03:42:38;;;;;;;;;;;;;;;21.78;49.93;96939.88;4236159;27;5716;-69
2023/08/05 03:44:42;;;;;;;;;;;;;;;21.78;49.60;96941.75;4236615;28;5822;-69
2023/08/05 03:46:45;;;;;;;;;;;;;;;21.76;50.03;96936.63;4231444;28;5668;-69
2023/08/05 03:48:49;;;;;;;;;;;;;;;21.76;50.04;96925.06;4236493;28;5633;-68
2023/08/05 03:50:52;;;;;;;;;;;;;;;21.75;49.81;96912.69;4219497;28;5656;-69
2023/08/05 03:52:55;;;;;;;;;;;;;;;21.72;49.64;96907.81;4228929;28;5646;-68
2023/08/05 03:54:59;;;;;;;;;;;;;;;21.72;49.66;96902.44;4236384;27;5721;-70
2023/08/05 03:57:08;;;;;;;;;;;;;;;21.70;49.92;96897.31;4235959;28;5674;-68
2023/08/05 03:59:10;;;;;;;;;;;;;;;21.68;49.98;96891.38;4236539;28;5638;-68
2023/08/05 04:01:16;;;;;;;;;;;;;;;21.67;50.07;96895.16;4236347;27;5685;-69
2023/08/05 04:03:21;;;;;;;;;;;;;;;21.62;49.82;96902.38;4234650;28;5642;-68
2023/08/05 04:05:24;;;;;;;;;;;;;;;21.57;50.04;96899.66;4232001;28;5749;-68
2023/08/05 04:07:27;;;;;;;;;;;;;;;21.57;49.93;96891.59;4235936;27;5646;-68
2023/08/05 04:09:29;;;;;;;;;;;;;;;21.59;50.07;96902.91;4236412;28;5756;-68
2023/08/05 04:11:33;;;;;;;;;;;;;;;21.59;50.01;96910.97;4227650;28;5638;-68
2023/08/05 04:13:58;;;;;;;;;;;;;;;21.59;50.01;96902.91;4235584;28;5710;-68
2023/08/05 04:16:03;;;;;;;;;;;;;;;21.58;50.25;96902.09;4235674;28;5663;-69
2023/08/05 04:18:07;;;;;;;;;;;;;;;21.58;50.08;96901.28;4236052;28;5616;-69
2023/08/05 04:20:11;;;;;;;;;;;;;;;21.58;50.33;96909.34;4235739;28;5707;-69
2023/08/05 04:22:16;;;;;;;;;;;;;;;21.57;49.98;96910.41;4236107;28;5657;-69
2023/08/05 04:24:22;;;;;;;;;;;;;;;21.54;50.35;96908.25;4235908;28;5638;-69
2023/08/05 04:26:25;;;;;;;;;;;;;;;21.54;49.94;96901.00;4235922;28;5667;-69
2023/08/05 04:28:29;;;;;;;;;;;;;;;21.54;50.21;96901.00;4236244;28;5713;-69
2023/08/05 04:30:32;;;;;;;;;;;;;;;21.54;49.95;96906.38;4236151;28;5736;-69
2023/08/05 04:32:35;;;;;;;;;;;;;;;21.54;50.22;96908.25;4236222;28;5829;-70
2023/08/05 04:34:38;;;;;;;;;;;;;;;21.53;49.83;96914.72;4236596;28;5591;-69
2023/08/05 04:36:41;;;;;;;;;;;;;;;21.53;50.18;96923.59;4236416;28;5630;-69
2023/08/05 04:38:43;;;;;;;;;;;;;;;21.53;50.14;96918.22;4228065;28;5680;-69
2023/08/05 04:40:46;;;;;;;;;;;;;;;21.54;49.96;96919.81;4235644;28;5639;-69
2023/08/05 04:42:49;;;;;;;;;;;;;;;21.54;49.78;96938.66;4235895;27;5621;-69
2023/08/05 04:44:55;;;;;;;;;;;;;;;21.54;49.82;96940.53;4229575;28;5643;-69
2023/08/05 04:46:58;;;;;;;;;;;;;;;21.53;49.83;96947.00;4237555;28;5718;-69
2023/08/05 04:49:01;;;;;;;;;;;;;;;21.51;50.23;96948.03;4235391;28;5653;-68
2023/08/05 04:51:04;;;;;;;;;;;;;;;21.51;49.74;96947.22;4235306;28;5750;-68
2023/08/05 04:53:07;;;;;;;;;;;;;;;21.50;49.85;96949.09;4235477;27;5738;-69
2023/08/05 04:55:10;;;;;;;;;;;;;;;21.50;49.91;96949.09;4229429;28;5638;-69
2023/08/05 04:57:15;;;;;;;;;;;;;;;21.51;50.33;96945.34;4235086;28;5622;-68
2023/08/05 04:59:17;;;;;;;;;;;;;;;21.51;50.05;96939.97;4235298;28;5658;-68
2023/08/05 05:01:21;;;;;;;;;;;;;;;21.51;50.14;96939.16;4235038;27;5647;-68
2023/08/05 05:03:25;;;;;;;;;;;;;;;21.51;50.16;96939.16;4235508;28;5187;-69
2023/08/05 05:05:28;;;;;;;;;;;;;;;21.51;49.87;96934.59;4235143;28;5707;-69
2023/08/05 05:07:31;;;;;;;;;;;;;;;21.51;50.07;96929.19;4229521;28;5800;-69
2023/08/05 05:09:34;;;;;;;;;;;;;;;21.53;50.06;96920.09;4233107;28;5639;-68
2023/08/05 05:11:37;;;;;;;;;;;;;;;21.51;49.81;96923.81;4230801;28;5835;-69
2023/08/05 05:13:39;;;;;;;;;;;;;;;21.54;50.13;96927.09;4233255;28;5662;-68
2023/08/05 05:15:43;;;;;;;;;;;;;;;21.52;50.02;96924.66;4234556;28;5725;-68
2023/08/05 05:17:50;;;;;;;;;;;;;;;21.53;49.96;96920.91;4234927;28;5808;-69
2023/08/05 05:19:53;;;;;;;;;;;;;;;21.53;49.98;96926.28;4235071;28;5646;-69
2023/08/05 05:21:55;;;;;;;;;;;;;;;21.54;49.89;96914.44;4235060;28;5849;-69
2023/08/05 05:23:58;;;;;;;;;;;;;;;21.50;49.95;96916.81;4234896;28;5778;-69
2023/08/05 05:26:01;;;;;;;;;;;;;;;21.49;50.33;96917.91;4232872;28;5621;-68
2023/08/05 05:28:05;;;;;;;;;;;;;;;21.49;50.05;96922.47;4228352;28;5606;-68
2023/08/05 05:30:09;;;;;;;;;;;;;;;21.50;49.93;96919.50;4228722;28;5621;-68
2023/08/05 05:32:12;;;;;;;;;;;;;;;21.51;49.99;96923.00;4234851;28;5769;-70
2023/08/05 05:34:16;;;;;;;;;;;;;;;21.55;50.02;96920.63;4235146;28;5072;-70
2023/08/05 05:36:19;;;;;;;;;;;;;;;21.57;50.22;96926.56;4234856;27;5732;-69
2023/08/05 05:38:22;;;;;;;;;;;;;;;21.58;50.38;96933.56;4234841;28;5665;-69
2023/08/05 05:40:24;;;;;;;;;;;;;;;21.60;50.30;96932.22;4234712;28;5096;-69
2023/08/05 05:42:28;;;;;;;;;;;;;;;21.62;50.39;96942.72;4234337;28;7720;-70
2023/08/05 05:44:31;;;;;;;;;;;;;;;21.64;50.02;96944.09;4234632;28;5657;-70
2023/08/05 05:46:34;;;;;;;;;;;;;;;21.62;50.34;96940.03;4232225;27;5654;-70
2023/08/05 05:48:36;;;;;;;;;;;;;;;21.65;49.98;96950.28;4234807;28;5650;-70
2023/08/05 05:50:41;;;;;;;;;;;;;;;21.67;50.27;96950.84;4234397;27;5756;-70
2023/08/05 05:52:44;;;;;;;;;;;;;;;21.66;50.19;96946.53;4234485;28;5827;-70
2023/08/05 05:54:47;;;;;;;;;;;;;;;21.64;50.05;96938.72;4233909;28;5658;-70
2023/08/05 05:56:50;;;;;;;;;;;;;;;21.63;50.42;96936.28;4234391;28;5725;-70
2023/08/05 05:58:54;;;;;;;;;;;;;;;21.62;50.37;96930.06;4234610;28;5215;-70
2023/08/05 06:00:57;;;;;;;;;;;;;;;21.63;50.32;96923.66;4234436;28;5876;-69
2023/08/05 06:03:00;;;;;;;;;;;;;;;21.67;50.06;96922.06;4228086;28;5731;-69
2023/08/05 06:05:03;;;;;;;;;;;;;;;21.70;50.40;96926.91;4225849;28;5780;-69
2023/08/05 06:07:08;;;;;;;;;;;;;;;21.72;50.00;96934.72;4234217;27;5646;-69
2023/08/05 06:09:11;;;;;;;;;;;;;;;21.73;50.42;96930.94;4234238;28;5749;-69
2023/08/05 06:11:14;;;;;;;;;;;;;;;21.75;50.10;96942.28;4234383;28;5667;-70
2023/08/05 06:13:17;;;;;;;;;;;;;;;21.75;50.53;96935.03;4234021;28;5646;-69
2023/08/05 06:15:21;;;;;;;;;;;;;;;21.76;50.25;96935.84;4234260;28;5658;-70
2023/08/05 06:17:24;;;;;;;;;;;;;;;21.77;50.02;96934.75;4234495;28;5663;-70
2023/08/05 06:19:27;;;;;;;;;;;;;;;21.77;50.18;96932.06;4231216;28;5683;-70
2023/08/05 06:21:29;;;;;;;;;;;;;;;21.78;50.09;96933.69;4231515;28;5892;-70
2023/08/05 06:23:34;;;;;;;;;;;;;;;21.79;50.51;96933.41;4233966;28;5769;-70
2023/08/05 06:25:37;;;;;;;;;;;;;;;21.79;50.48;96933.41;4234303;28;5658;-70
2023/08/05 06:27:40;;;;;;;;;;;;;;;21.81;50.37;96933.16;4233784;27;5717;-70
2023/08/05 06:29:43;;;;;;;;;;;;;;;21.83;50.13;96930.19;4233992;28;5639;-70
2023/08/05 06:31:46;;;;;;;;;;;;;;;21.84;50.27;96935.31;4234265;27;6452;-70
2023/08/05 06:33:49;;;;;;;;;;;;;;;21.85;50.19;96931.56;4234405;28;6438;-70
2023/08/05 06:35:51;;;;;;;;;;;;;;;21.85;50.27;96934.25;4226044;28;5646;-70
2023/08/05 06:37:54;;;;;;;;;;;;;;;21.84;50.52;96926.44;4227362;28;5658;-70
2023/08/05 06:39:58;;;;;;;;;;;;;;;21.86;50.48;96935.88;4226750;28;5678;-70
2023/08/05 06:42:01;;;;;;;;;;;;;;;21.90;50.31;96926.22;4232464;27;5755;-69
2023/08/05 06:44:04;;;;;;;;;;;;;;;21.93;50.72;96931.06;4224322;28;5671;-70
2023/08/05 06:46:07;;;;;;;;;;;;;;;21.91;50.42;96927.03;4226844;27;6398;-70
2023/08/05 06:48:10;;;;;;;;;;;;;;;21.90;50.29;96920.81;4234203;28;6348;-70
2023/08/05 06:50:12;;;;;;;;;;;;;;;21.82;49.65;96918.63;4233924;28;6468;-70
2023/08/05 06:52:15;;;;;;;;;;;;;;;21.82;49.75;96920.50;4234208;27;5139;-69
2023/08/05 06:54:18;;;;;;;;;;;;;;;21.87;49.70;96915.16;4227327;28;5662;-69
2023/08/05 06:56:22;;;;;;;;;;;;;;;21.90;49.05;96920.81;4234081;28;5733;-69
2023/08/05 06:58:25;;;;;;;;;;;;;;;21.91;49.22;96917.06;4233704;28;5593;-69
2023/08/05 07:00:27;;;;;;;;;;;;;;;21.90;48.79;96911.94;4233844;28;6500;-69
2023/08/05 07:02:30;;;;;;;;;;;;;;;21.91;48.61;96922.44;4232716;28;5658;-69
2023/08/05 07:04:33;;;;;;;;;;;;;;;21.92;48.58;96921.38;4233806;27;5642;-69
2023/08/05 07:06:37;;;;;;;;;;;;;;;21.94;48.41;96927.28;4235039;28;5888;-69
2023/08/05 07:08:40;;;;;;;;;;;;;;;21.94;47.88;96915.72;4237151;28;5650;-69
2023/08/05 07:10:43;;;;;;;;;;;;;;;21.95;48.04;96912.75;4236903;28;5661;-69
2023/08/05 07:12:47;;;;;;;;;;;;;;;21.95;47.60;96917.34;4236849;28;5816;-69
2023/08/05 07:14:50;;;;;;;;;;;;;;;21.95;47.36;96918.16;4237176;28;6054;-69
2023/08/05 07:16:53;;;;;;;;;;;;;;;21.97;47.05;96912.50;4237144;28;5756;-69
2023/08/05 07:18:56;;;;;;;;;;;;;;;21.92;47.23;96907.09;4237178;28;5668;-70
2023/08/05 07:20:59;;;;;;;;;;;;;;;21.93;47.21;96909.53;4236875;28;5655;-69
2023/08/05 07:23:02;;;;;;;;;;;;;;;21.95;47.16;96907.38;4236884;27;5803;-70
2023/08/05 07:25:05;;;;;;;;;;;;;;;21.97;46.82;96910.66;4235028;28;5745;-69
2023/08/05 07:40:04;;;;;;;;;;;;;;;22.02;46.97;96891.81;4248439;27;10336;-68
2023/08/05 07:42:09;;;;;;;;;;;;;;;22.06;46.54;96894.81;4237059;27;5183;-69
2023/08/05 07:44:12;;;;;;;;;;;;;;;22.08;46.48;96901.56;4243293;27;5666;-69
2023/08/05 07:46:19;;;;;;;;;;;;;;;22.11;46.41;96891.34;4244837;27;5666;-69
2023/08/05 07:48:23;;;;;;;;;;;;;;;22.10;46.02;96893.22;4238006;27;5685;-69
2023/08/05 07:50:26;;;;;;;;;;;;;;;22.10;46.36;96893.22;4239963;27;5666;-69
2023/08/05 07:52:30;;;;;;;;;;;;;;;22.10;46.00;96887.03;4234296;27;5844;-69
2023/08/05 07:54:33;;;;;;;;;;;;;;;22.08;45.84;96890.81;4247461;27;5594;-69
2023/08/05 07:56:39;;;;;;;;;;;;;;;22.05;45.87;96879.69;4247613;27;5647;-69
2023/08/05 07:58:46;;;;;;;;;;;;;;;22.06;45.89;96881.34;4246334;27;5589;-69
2023/08/05 08:00:50;;;;;;;;;;;;;;;22.07;46.14;96888.34;4235458;27;5689;-69
2023/08/05 08:02:53;;;;;;;;;;;;;;;22.07;45.79;96883.78;4247871;27;5688;-69
2023/08/05 08:04:58;;;;;;;;;;;;;;;22.12;46.15;96882.19;4238267;27;5625;-69
2023/08/05 08:07:01;;;;;;;;;;;;;;;22.10;45.68;96876.25;4247826;27;5773;-69
2023/08/05 08:09:05;;;;;;;;;;;;;;;22.14;45.97;96875.44;4247247;27;5605;-69
2023/08/05 08:11:07;;;;;;;;;;;;;;;22.12;45.85;96879.50;4247671;27;5722;-69
2023/08/05 08:13:11;;;;;;;;;;;;;;;22.10;45.78;96874.38;4247165;27;5613;-69
2023/08/05 08:15:15;;;;;;;;;;;;;;;22.12;46.12;96879.50;4246314;27;5601;-69
2023/08/05 08:17:18;;;;;;;;;;;;;;;22.11;46.13;96867.09;4240378;27;5815;-69
2023/08/05 08:19:22;;;;;;;;;;;;;;;22.11;46.26;96867.09;4231812;27;5605;-69
2023/08/05 08:21:26;;;;;;;;;;;;;;;22.13;46.06;96873.84;4243507;27;5680;-69
2023/08/05 08:23:29;;;;;;;;;;;;;;;22.17;46.05;96876.81;4247174;27;5724;-69
2023/08/05 08:25:32;;;;;;;;;;;;;;;22.19;46.23;96871.97;4247257;27;5748;-69
2023/08/05 08:27:36;;;;;;;;;;;;;;;22.20;45.94;96876.25;4246988;27;5591;-69
2023/08/05 08:29:40;;;;;;;;;;;;;;;22.22;46.06;96868.75;4246663;27;5098;-69
2023/08/05 08:31:44;;;;;;;;;;;;;;;22.23;46.32;96860.41;4245767;27;5712;-69
2023/08/05 08:33:47;;;;;;;;;;;;;;;22.24;46.11;96870.09;4246832;27;5087;-69
2023/08/05 08:35:49;;;;;;;;;;;;;;;22.26;46.18;96859.06;4239729;27;5605;-69
2023/08/05 08:37:52;;;;;;;;;;;;;;;22.27;46.18;96860.69;4237912;27;5716;-69
2023/08/05 08:39:56;;;;;;;;;;;;;;;22.28;46.40;96856.91;4235955;27;5793;-69
2023/08/05 08:42:00;;;;;;;;;;;;;;;22.30;46.28;96852.88;4232415;28;5618;-69
2023/08/05 08:44:05;;;;;;;;;;;;;;;22.31;46.25;96849.13;4230727;28;5080;-69
2023/08/05 08:46:12;;;;;;;;;;;;;;;22.31;46.03;96857.19;4227018;28;5691;-69
2023/08/05 08:48:16;;;;;;;;;;;;;;;22.30;46.42;96850.16;4229782;28;6455;-69
2023/08/05 08:50:21;;;;;;;;;;;;;;;22.32;46.39;96847.25;4233594;28;5602;-69
2023/08/05 08:52:26;;;;;;;;;;;;;;;22.34;46.54;96850.47;4229124;28;5590;-69
2023/08/05 08:54:30;;;;;;;;;;;;;;;22.36;46.52;96849.13;4227523;28;5727;-70
2023/08/05 08:56:33;;;;;;;;;;;;;;;22.36;46.34;96843.72;4226213;28;6533;-69
2023/08/05 08:58:37;;;;;;;;;;;;;;;22.37;46.28;96839.97;4224275;28;5743;-69
2023/08/05 09:00:40;;;;;;;;;;;;;;;22.39;46.51;96839.69;4234083;28;5681;-69
2023/08/05 09:02:45;;;;;;;;;;;;;;;22.39;46.54;96837.00;4225259;28;5789;-69
2023/08/05 09:04:52;;;;;;;;;;;;;;;22.39;46.39;96834.31;4228228;28;5628;-69
2023/08/05 09:06:58;;;;;;;;;;;;;;;22.40;46.32;96833.22;4224492;28;5598;-69
2023/08/05 09:09:04;;;;;;;;;;;;;;;22.42;46.24;96825.69;4234348;28;5606;-69
2023/08/05 09:11:07;;;;;;;;;;;;;;;22.41;45.92;96832.16;4235260;28;5602;-69
2023/08/05 09:13:11;;;;;;;;;;;;;;;22.44;46.15;96833.53;4227384;28;6543;-69
2023/08/05 09:15:15;;;;;;;;;;;;;;;22.47;46.06;96832.97;4232957;28;5789;-69
2023/08/05 09:17:19;;;;;;;;;;;;;;;22.46;46.20;96826.78;4228469;28;5574;-69
2023/08/05 09:19:26;;;;;;;;;;;;;;;22.47;46.09;96825.69;4232654;28;6633;-69
2023/08/05 09:21:30;;;;;;;;;;;;;;;22.51;45.94;96821.38;4230285;28;5145;-69
2023/08/05 09:23:45;;;;;;;;;;;;;;;22.54;46.17;96820.06;4234999;28;5830;-69
2023/08/05 09:25:49;;;;;;;;;;;;;;;22.56;46.25;96823.28;4235028;28;5701;-69
2023/08/05 09:27:53;;;;;;;;;;;;;;;22.56;45.97;96818.72;4232440;28;5614;-69
2023/08/05 09:30:14;;;;;;;;;;;;;;;22.56;45.90;96816.03;4219993;28;5707;-69
2023/08/05 09:32:19;;;;;;;;;;;;;;;22.55;46.13;96817.09;4221223;28;5597;-69
2023/08/05 09:34:42;;;;;;;;;;;;;;;22.57;46.06;96827.59;4232485;28;5594;-69
2023/08/05 09:36:46;;;;;;;;;;;;;;;22.55;46.15;96825.19;4234743;28;5626;-69
2023/08/05 09:39:02;;;;;;;;;;;;;;;22.54;46.00;96817.38;4233752;28;5590;-69
2023/08/05 09:41:07;;;;;;;;;;;;;;;22.52;45.66;96804.16;4227726;28;5594;-70
2023/08/05 09:43:10;;;;;;;;;;;;;;;22.51;46.20;96805.22;4228250;28;5612;-70
2023/08/05 09:45:15;;;;;;;;;;;;;;;22.50;46.03;96803.59;4233491;28;6549;-70
2023/08/05 09:47:22;;;;;;;;;;;;;;;22.50;45.57;96795.53;4229101;28;5716;-70
2023/08/05 09:49:28;;;;;;;;;;;;;;;22.52;45.48;96790.66;4231547;28;5781;-69
2023/08/05 09:51:33;;;;;;;;;;;;;;;22.53;45.90;96789.59;4233073;28;5692;-70
2023/08/05 09:53:39;;;;;;;;;;;;;;;22.54;45.92;96782.34;4233465;28;5689;-70
2023/08/05 09:55:45;;;;;;;;;;;;;;;22.56;45.75;96777.50;4234796;28;5763;-70
2023/08/05 09:57:50;;;;;;;;;;;;;;;22.56;45.80;96778.31;4234296;28;5602;-69
2023/08/05 09:59:54;;;;;;;;;;;;;;;22.54;45.46;96780.47;4227735;28;5617;-70
2023/08/05 10:01:59;;;;;;;;;;;;;;;22.54;45.86;96779.66;4227035;28;5707;-70
2023/08/05 10:04:02;;;;;;;;;;;;;;;22.54;45.84;96772.38;4235500;27;5579;-70
2023/08/05 10:06:11;;;;;;;;;;;;;;;22.54;45.78;96772.38;4227867;28;5620;-70
2023/08/05 10:08:19;;;;;;;;;;;;;;;22.56;45.37;96783.69;4234910;28;6329;-70
2023/08/05 10:10:24;;;;;;;;;;;;;;;22.56;45.86;96789.06;4235117;28;5707;-70
2023/08/05 10:12:31;;;;;;;;;;;;;;;22.57;45.30;96796.06;4234977;28;5602;-70
2023/08/05 10:14:35;;;;;;;;;;;;;;;22.57;45.97;96812.25;4229189;28;5857;-70
2023/08/05 10:16:39;;;;;;;;;;;;;;;22.57;46.02;96800.66;4226612;28;5686;-70
2023/08/05 10:18:43;;;;;;;;;;;;;;;22.57;45.76;96800.66;4227643;28;5592;-70
2023/08/05 10:20:51;;;;;;;;;;;;;;;22.53;45.62;96781.50;4234843;28;5841;-70
2023/08/05 10:23:03;;;;;;;;;;;;;;;22.55;45.98;96782.06;4235131;28;5656;-70
2023/08/05 10:25:08;;;;;;;;;;;;;;;22.55;45.83;96776.69;4234649;28;5598;-70
2023/08/05 10:27:11;;;;;;;;;;;;;;;22.55;45.77;96774.00;4232348;28;5741;-70
2023/08/05 10:29:26;;;;;;;;;;;;;;;22.56;45.78;96767.53;4229130;28;5623;-70
2023/08/05 10:31:37;;;;;;;;;;;;;;;22.59;45.48;96776.94;4234961;28;5598;-70
2023/08/05 10:34:11;;;;;;;;;;;;;;;22.61;45.81;96770.19;4234797;28;5606;-70
2023/08/05 10:36:14;;;;;;;;;;;;;;;22.62;45.23;96774.50;4229229;28;5625;-70
2023/08/05 10:38:20;;;;;;;;;;;;;;;22.66;45.19;96774.81;4234280;28;5668;-70
2023/08/05 10:40:38;;;;;;;;;;;;;;;22.64;45.17;96766.97;4234459;28;6279;-70
2023/08/05 10:42:41;;;;;;;;;;;;;;;22.65;45.24;96770.47;4234554;28;5659;-71
2023/08/05 10:44:45;;;;;;;;;;;;;;;22.67;45.10;96777.22;4234285;28;5675;-70
2023/08/05 10:46:49;;;;;;;;;;;;;;;22.70;45.28;96775.06;4234608;28;5663;-70
2023/08/05 10:48:52;;;;;;;;;;;;;;;22.73;45.36;96769.94;4234571;28;5673;-70
2023/08/05 10:50:57;;;;;;;;;;;;;;;22.75;45.24;96764.25;4217827;28;5613;-69
2023/08/05 10:53:03;;;;;;;;;;;;;;;22.78;45.32;96758.34;4226176;28;5710;-69
2023/08/05 10:55:12;;;;;;;;;;;;;;;22.80;45.19;96748.09;4232902;28;5860;-69
2023/08/05 10:57:48;;;;;;;;;;;;;;;22.82;45.37;96748.63;4232174;28;5140;-69
2023/08/05 10:59:57;;;;;;;;;;;;;;;22.81;45.36;96747.03;4226834;28;5571;-69
2023/08/05 11:02:02;;;;;;;;;;;;;;;22.79;44.93;96739.22;4231919;28;5797;-69
2023/08/05 11:04:27;;;;;;;;;;;;;;;22.82;45.44;96740.53;4225950;28;5599;-69
2023/08/05 11:06:30;;;;;;;;;;;;;;;22.86;45.33;96738.94;4227607;28;5674;-69
2023/08/05 11:08:35;;;;;;;;;;;;;;;22.90;45.03;96745.41;4228003;27;5665;-69